[Talk-it] Cellulari Android per OSM

Carlo cybor69 at gmail.com
Wed Oct 6 19:42:09 BST 2010


Ciao ale,

in data mercoledì 6 ottobre 2010, alle ore 19:51, hai scritto:

>>----Messaggio originale----
>>Da: stefano.salvador at gmail.com
>>Data: 06/10/2010 18.25
> .......
>>> con la baracchetta Garmin Etrex
>>> Venture si riesce a fare (connessione via porta seriale e GPS impostato nel
>>> seguente modo: Setup --> Interfaccia --> Formato dati seriali: RTCM In / 
> NMEA
>>> Out (di default è impostato come formato Garmin),
>>
>>Per caso hai un pezzo di NMEA che sputa fuori? sono curioso di vedere
>>quali dati ci sono.
>>
>>_______________________________________________
> Non ho un accrocchio che mi duplica la seriale per vedere cosa sputa fuori
> l'uscita del Garmin, il programma di NTRIPclient mi genera un file di log e uno
> di NMEA nel quale però ci sono solo le frasi GGA

> Qui sotto un pezzo del file di log:
> 29/06/2010 18.44.58 - NTRIP Client is Connected, Waiting for Data.
> 29/06/2010 18.44.59 - NTRIP Client is receiving data.
> 29/06/2010 18.45.10 - Number of Satellites tracked Increased from 5 to 6
> 29/06/2010 18.45.11 - Number of Satellites tracked Decreased from 6 to 5
> 29/06/2010 18.45.17 - Number of Satellites tracked Increased from 5 to 6
> 29/06/2010 18.45.18 - Number of Satellites tracked Decreased from 6 to 5
> 29/06/2010 18.45.22 - Number of Satellites tracked Increased from 5 to 6
> 29/06/2010 18.45.23 - Number of Satellites tracked Decreased from 6 to 5
> 29/06/2010 18.47.31 - Number of Satellites tracked Increased from 5 to 6

> e qui un pezzo dell'uscita NMEA (i caratteri XX per motivi di privacy)
> $GPGGA,190322,44xx.0716,N,008xx.3259,E,1,04,1.7,144.1,M,46.8,M,,*4E
> $GPGGA,190324,44xx.0718,N,008xx.3256,E,1,04,1.7,145.8,M,46.8,M,,*41
> $GPGGA,190326,44xx.0722,N,008xx.3256,E,1,04,1.7,147.5,M,46.8,M,,0001*44
> $GPGGA,190328,44xx.0726,N,008xx.3257,E,1,04,1.7,148.7,M,46.8,M,,0001*42
> $GPGGA,190330,44xx.0728,N,008xx.3259,E,1,04,1.7,149.2,M,46.8,M,,0001*4F

> Alessandro

Scusate  se m'intrometto, ma io ho un RBT 2100 (RealTek BlueTooth) che
tramite SirfDemo butta fuori qualche dato in più, potrebbero servire ?

SiRFDemo Version 3.87 log file opened 10/06/10 19:57:58
SiRFDemo Build Date: June 20, 2007

$GPGGA,175758.000,0111.1262,N,01111.9097,E,1,04,2.4,-1.4,M,48.0,M,,0000*76
$GPGSA,A,3,19,32,11,20,,,,,,,,,2.6,2.4,1.0*3A
$GPGSV,3,1,11,19,78,196,27,24,77,017,,03,43,163,21,14,38,099,19*72
$GPGSV,3,2,11,32,37,218,40,11,33,289,48,22,33,053,,06,32,152,25*7D
$GPGSV,3,3,11,28,17,315,,20,16,228,40,18,01,049,*4E
$GPRMC,175758.000,A,0111.1262,N,01111.9097,E,0.00,0.00,061010,,,A*64
$GPGGA,175759.000,0111.1261,N,01111.9096,E,1,04,2.4,-1.3,M,48.0,M,,0000*72
$GPGSA,A,3,19,32,11,20,,,,,,,,,2.6,2.4,1.0*3A
$GPRMC,175759.000,A,0111.1261,N,01111.9096,E,0.00,0.00,061010,,,A*67
$GPGGA,175800.000,0111.1261,N,01111.9096,E,1,04,2.4,-1.2,M,48.0,M,,0000*70
$GPGSA,A,3,19,32,11,20,,,,,,,,,2.6,2.4,1.0*3A
$GPRMC,175800.000,A,0111.1261,N,01111.9096,E,0.00,0.00,061010,,,A*64
$GPGGA,175801.000,0111.1261,N,01111.9095,E,1,04,2.4,-1.0,M,48.0,M,,0000*70
$GPGSA,A,3,19,32,11,20,,,,,,,,,2.6,2.4,1.0*3A
$GPRMC,175801.000,A,0111.1261,N,01111.9095,E,0.00,0.00,061010,,,A*66
$GPGGA,175802.000,0111.1261,N,01111.9094,E,1,04,2.4,-0.9,M,48.0,M,,0000*7A
$GPGSA,A,3,19,32,11,20,,,,,,,,,2.6,2.4,1.0*3A
$GPRMC,175802.000,A,0111.1261,N,01111.9094,E,0.00,0.00,061010,,,A*64
$GPGGA,175803.000,0111.1260,N,01111.9093,E,1,04,2.4,-0.7,M,48.0,M,,0000*73
$GPGSA,A,3,19,32,11,20,,,,,,,,,2.6,2.4,1.0*3A
$GPGSV,3,1,11,19,78,196,27,24,77,017,,03,43,163,21,14,38,099,15*7E
$GPGSV,3,2,11,32,37,218,40,11,33,289,48,22,33,053,,06,32,152,25*7D
$GPGSV,3,3,11,28,17,315,13,20,16,228,40,18,01,049,*4C
$GPRMC,175803.000,A,0111.1260,N,01111.9093,E,0.00,0.00,061010,,,A*63
$GPGGA,175804.000,0111.1260,N,01111.9092,E,1,04,2.4,-0.5,M,48.0,M,,0000*77
$GPGSA,A,3,19,32,11,20,,,,,,,,,2.6,2.4,1.0*3A
$GPRMC,175804.000,A,0111.1260,N,01111.9092,E,0.00,0.00,061010,,,A*65
$GPGGA,175805.000,0111.1260,N,01111.9091,E,1,04,2.4,-0.3,M,48.0,M,,0000*73
$GPGSA,A,3,19,32,11,20,,,,,,,,,2.6,2.4,1.0*3A
$GPRMC,175805.000,A,0111.1260,N,01111.9091,E,0.00,0.00,061010,,,A*67
$GPGGA,175806.000,0111.1259,N,01111.9090,E,1,04,2.4,-0.1,M,48.0,M,,0000*79
$GPGSA,A,3,19,32,11,20,,,,,,,,,2.6,2.4,1.0*3A
$GPRMC,175806.000,A,0111.1259,N,01111.9090,E,0.00,0.00,061010,,,A*6F
$GPGGA,175807.000,0111.1259,N,01111.9089,E,1,04,2.4,0.1,M,48.0,M,,0000*5D
$GPGSA,A,3,19,32,11,20,,,,,,,,,2.6,2.4,1.0*3A
$GPRMC,175807.000,A,0111.1259,N,01111.9089,E,0.00,0.00,061010,,,A*66
$GPGGA,175808.000,0111.1259,N,01111.9087,E,1,04,2.4,0.3,M,48.0,M,,0000*5E
$GPGSA,A,3,19,32,11,20,,,,,,,,,2.6,2.4,1.0*3A
$GPGSV,3,1,11,19,78,196,27,24,77,017,23,03,43,163,21,14,38,099,16*7C
$GPGSV,3,2,11,32,37,218,39,11,33,289,47,22,33,053,,06,32,152,24*7D
$GPGSV,3,3,11,28,17,315,,20,16,228,40,18,01,049,*4E
$GPRMC,175808.000,A,0111.1259,N,01111.9087,E,0.00,0.00,061010,,,A*67
$GPGGA,175809.000,0111.1259,N,01111.9088,E,1,05,3.6,0.3,M,48.0,M,,0000*52
$GPGSA,A,3,19,32,11,20,28,,,,,,,,5.1,3.6,3.6*37

Log file closed 10/06/10 19:58:09

Spero di aver abblencato abbastanza dati :-)

Oltre  questo  su di un forum dicevano che aggiornando il firmware sui
SIRFIII  si riesce ad ottenere anche più dati, però devo capire meglio
perchè il forum è in inglese e ci sono 12 pagine da leggere :-)

-
Ciao,                        Scrivi a:
 Carlo                                cybor69 at gmail.com




More information about the Talk-it mailing list